Palermo, North Dakota
Current Conditions -  °F | °C
As of 1:35 AM on Saturday 29 Nov 2014 (Local Time) from K08D Reporting Station
Overcast Overcast  
Wind Chill:   Ceiling: 7000
Heat Index: 18°   Visibility: 10mi
Dew Point: 18°   Wind: 9mph
Humidity: 100%   Direction: 330°NNW
Pressure: 29.38"   Gusts: NA
Location:  48.34°N, 102.23°W
Report Text: K08D 290735Z AUTO 33008KT 10SM FEW060 OVC070 M08/M08 A2938 RMK AO2
Loading
Personal Weather Stations






























Interactive Weather Map New forecast layout! Learn more

10-Day Weather Forecast

Advertisements
Track Severe Weather on mobile